Time;durP1;ratioP1;P1;durP2;ratioP2;P2;SDS_P1;SDS_P2;PMS_P1;PMS_P2;Temp;Humidity;BMP_temperature;BMP_pressure;BME280_temperature;BME280_humidity;BME280_pressure;Samples;Min_cycle;Max_cycle;Signal;HPM_P1;HPM_P2
2021/07/29 00:00:56;;;;;;;30.08;15.85;;;;;;;23.27;76.72;97307.59;5073574;28;20549;-78
2021/07/29 00:03:22;;;;;;;31.17;16.15;;;;;;;23.22;76.22;97310.03;5108508;28;20134;-78
2021/07/29 00:05:49;;;;;;;33.47;15.77;;;;;;;23.21;76.78;97319.25;5089909;28;20448;-78
2021/07/29 00:08:16;;;;;;;30.77;15.68;;;;;;;23.20;76.66;97317.53;5090684;28;20055;-78
2021/07/29 00:10:42;;;;;;;28.17;15.32;;;;;;;23.04;76.74;97313.00;5090473;28;20498;-78
2021/07/29 00:13:07;;;;;;;31.35;15.35;;;;;;;22.99;77.14;97315.44;5090068;28;20096;-78
2021/07/29 00:15:33;;;;;;;37.20;15.93;;;;;;;22.89;77.77;97298.41;5090311;28;20028;-78
2021/07/29 00:20:27;;;;;;;31.58;16.25;;;;;;;22.83;77.93;97310.03;5090144;28;20101;-78
2021/07/29 00:22:57;;;;;;;28.65;15.27;;;;;;;22.75;78.41;97309.22;5089979;28;20485;-78
2021/07/29 00:25:24;;;;;;;31.33;15.68;;;;;;;22.71;79.02;97310.59;5072930;28;20024;-78
2021/07/29 00:27:50;;;;;;;35.72;16.58;;;;;;;22.60;79.87;97304.50;5090022;28;20475;-78
2021/07/29 00:30:17;;;;;;;27.42;15.55;;;;;;;22.73;79.31;97314.03;5089820;28;20042;-78
2021/07/29 00:32:43;;;;;;;30.92;15.90;;;;;;;22.60;79.81;97303.63;5090017;28;20103;-78
2021/07/29 00:35:14;;;;;;;27.85;15.85;;;;;;;22.59;79.69;97301.91;5089590;28;20039;-78
2021/07/29 00:37:48;;;;;;;44.60;16.77;;;;;;;22.62;79.79;97288.78;5072307;28;20037;-79
2021/07/29 00:40:14;;;;;;;34.80;15.65;;;;;;;22.67;79.99;97299.22;5052830;28;20120;-78
2021/07/29 00:42:41;;;;;;;42.75;15.57;;;;;;;22.70;79.95;97292.56;5036367;28;20027;-79
2021/07/29 00:45:07;;;;;;;34.38;15.65;;;;;;;22.68;79.13;97282.66;5052656;28;20040;-78
2021/07/29 00:47:33;;;;;;;34.97;15.65;;;;;;;22.64;79.38;97275.81;5052482;28;20021;-79
2021/07/29 00:49:59;;;;;;;37.88;16.48;;;;;;;22.60;80.04;97277.22;5052848;28;20036;-78
2021/07/29 00:52:24;;;;;;;35.75;15.70;;;;;;;22.60;79.41;97287.28;5052446;28;20416;-79
2021/07/29 00:54:51;;;;;;;27.55;14.68;;;;;;;22.54;79.69;97298.88;5036062;28;20032;-78
2021/07/29 00:57:17;;;;;;;32.38;15.45;;;;;;;22.40;79.54;97277.78;5052426;28;20029;-78
2021/07/29 00:59:42;;;;;;;34.30;15.18;;;;;;;22.23;80.57;97278.88;5035774;28;20021;-79
2021/07/29 01:02:08;;;;;;;27.95;14.43;;;;;;;22.28;81.37;97292.81;5052135;28;20032;-78
2021/07/29 01:04:34;;;;;;;26.08;15.30;;;;;;;22.26;82.18;97293.00;5035622;28;20025;-78
2021/07/29 01:07:00;;;;;;;28.75;14.77;;;;;;;22.20;82.50;97290.97;5052449;28;20388;-78
2021/07/29 01:09:26;;;;;;;33.42;15.93;;;;;;;22.23;82.25;97295.22;5035438;28;20044;-78
2021/07/29 01:11:51;;;;;;;30.00;15.90;;;;;;;22.05;83.39;97266.31;5052440;28;20135;-78
2021/07/29 01:14:17;;;;;;;33.75;14.95;;;;;;;22.03;83.37;97262.03;5053295;28;20090;-79
2021/07/29 01:16:43;;;;;;;30.52;14.43;;;;;;;22.25;82.77;97282.25;5052089;28;20049;-78
2021/07/29 01:19:10;;;;;;;31.13;15.63;;;;;;;22.20;83.18;97277.34;5052080;28;20056;-78
2021/07/29 01:21:36;;;;;;;30.27;14.75;;;;;;;22.28;82.82;97271.00;5035375;28;20621;-78
2021/07/29 01:24:02;;;;;;;31.88;15.20;;;;;;;22.47;82.16;97292.41;5052198;28;20024;-78
2021/07/29 01:26:28;;;;;;;29.80;15.52;;;;;;;22.42;82.27;97290.25;5051718;28;20373;-79
2021/07/29 01:28:55;;;;;;;29.65;14.85;;;;;;;22.46;81.84;97286.13;5051989;28;20036;-78
2021/07/29 01:31:21;;;;;;;28.48;14.30;;;;;;;22.45;81.66;97283.56;5035074;28;20028;-78
2021/07/29 01:33:47;;;;;;;32.53;15.18;;;;;;;22.37;82.05;97291.75;5035241;28;20395;-78
2021/07/29 01:36:12;;;;;;;29.83;14.55;;;;;;;22.32;81.61;97278.66;5035049;28;20040;-78
2021/07/29 01:38:38;;;;;;;26.95;15.02;;;;;;;22.30;81.62;97268.97;5042686;28;20052;-78
2021/07/29 01:41:04;;;;;;;27.27;14.80;;;;;;;22.25;82.01;97274.09;5051943;28;20571;-78
2021/07/29 01:43:30;;;;;;;28.50;14.35;;;;;;;22.22;82.70;97294.34;5068109;28;20032;-78
2021/07/29 01:45:56;;;;;;;26.45;15.30;;;;;;;22.17;83.10;97279.56;5034728;28;20032;-78
2021/07/29 01:48:21;;;;;;;32.67;15.18;;;;;;;22.15;83.12;97274.28;5061047;28;20620;-79
2021/07/29 01:50:47;;;;;;;33.17;15.52;;;;;;;22.07;83.58;97286.06;5053733;28;20024;-78
2021/07/29 01:53:13;;;;;;;27.35;14.50;;;;;;;21.95;83.22;97252.03;5054909;28;20032;-78
2021/07/29 01:55:43;;;;;;;29.55;14.55;;;;;;;22.05;82.89;97268.19;5054862;28;20020;-79
2021/07/29 01:58:12;;;;;;;30.15;14.20;;;;;;;21.99;83.04;97257.97;5064157;28;20112;-79
2021/07/29 02:00:39;;;;;;;30.30;14.07;;;;;;;22.02;81.65;97255.75;5051132;28;20506;-78
2021/07/29 02:03:05;;;;;;;32.70;15.48;;;;;;;21.74;82.58;97246.22;5034638;28;20021;-78
2021/07/29 02:05:31;;;;;;;23.85;15.05;;;;;;;21.67;82.87;97237.03;5034392;28;20488;-79
2021/07/29 02:07:57;;;;;;;35.25;14.88;;;;;;;21.76;83.41;97254.22;5034526;28;20028;-79
2021/07/29 02:10:22;;;;;;;29.90;14.73;;;;;;;21.58;83.10;97221.72;5043483;28;20039;-79
2021/07/29 02:12:49;;;;;;;25.98;14.05;;;;;;;21.74;83.57;97248.97;5071018;28;20035;-79
2021/07/29 02:15:15;;;;;;;35.00;14.50;;;;;;;21.60;83.76;97239.59;5071313;28;20024;-79
2021/07/29 02:17:40;;;;;;;27.13;14.77;;;;;;;21.61;84.59;97245.88;5070912;28;20031;-79
2021/07/29 02:20:07;;;;;;;27.02;14.32;;;;;;;21.59;84.07;97246.06;5047665;28;20047;-79
2021/07/29 02:22:32;;;;;;;26.90;15.15;;;;;;;21.47;84.11;97238.44;5052680;28;20028;-79
2021/07/29 02:24:58;;;;;;;23.42;14.63;;;;;;;21.42;84.13;97225.31;5070783;28;20032;-79
2021/07/29 02:27:24;;;;;;;28.02;14.00;;;;;;;21.44;83.94;97222.44;5054033;28;20068;-79
2021/07/29 02:29:53;;;;;;;28.90;15.25;;;;;;;21.53;84.36;97210.53;5054192;28;20066;-80
2021/07/29 02:32:19;;;;;;;33.25;15.05;;;;;;;21.63;83.64;97224.78;5070753;28;20487;-79
2021/07/29 02:34:45;;;;;;;24.02;12.98;;;;;;;21.56;82.85;97211.00;5070656;28;20028;-79
2021/07/29 02:37:11;;;;;;;30.83;14.32;;;;;;;21.65;83.62;97219.19;5063610;28;20054;-80
2021/07/29 02:39:37;;;;;;;30.45;14.18;;;;;;;21.68;83.18;97208.81;5066960;28;20040;-80
2021/07/29 02:42:04;;;;;;;27.23;14.50;;;;;;;21.76;83.24;97210.66;5034123;28;20021;-80
2021/07/29 02:44:29;;;;;;;32.65;14.82;;;;;;;21.82;83.37;97224.44;5033595;28;20098;-80
2021/07/29 02:46:55;;;;;;;35.03;13.82;;;;;;;21.92;82.85;97227.00;5050418;28;20024;-79
2021/07/29 02:49:20;;;;;;;28.75;14.77;;;;;;;21.94;82.56;97220.34;5058566;28;20407;-79
2021/07/29 02:51:46;;;;;;;35.53;14.57;;;;;;;22.05;82.27;97220.00;5050379;28;20503;-80
2021/07/29 02:54:11;;;;;;;37.50;14.60;;;;;;;21.97;82.09;97209.09;5033624;28;20037;-79
2021/07/29 02:56:37;;;;;;;32.72;14.05;;;;;;;22.05;82.49;97233.63;5035383;28;20033;-79
2021/07/29 02:59:02;;;;;;;29.35;14.85;;;;;;;22.08;81.97;97225.09;5053971;28;20491;-79
2021/07/29 03:01:28;;;;;;;30.08;13.88;;;;;;;22.04;82.91;97231.91;5070179;28;20036;-79
2021/07/29 03:03:54;;;;;;;28.23;14.07;;;;;;;21.79;83.04;97208.44;5054017;28;20028;-79
2021/07/29 03:06:20;;;;;;;25.52;12.90;;;;;;;21.58;84.25;97206.25;5037753;28;20037;-80
2021/07/29 03:08:45;;;;;;;29.83;14.38;;;;;;;21.65;85.24;97230.06;5044604;28;20040;-79
2021/07/29 03:11:11;;;;;;;25.98;13.43;;;;;;;21.57;84.90;97218.16;5038970;28;20401;-82
2021/07/29 03:13:37;;;;;;;24.58;12.77;;;;;;;21.54;85.15;97232.09;5051149;28;20044;-82
2021/07/29 03:16:02;;;;;;;30.55;12.68;;;;;;;21.49;85.30;97220.03;5040047;28;20055;-82
2021/07/29 03:18:28;;;;;;;26.65;12.77;;;;;;;21.54;83.89;97218.50;5050096;28;20047;-81
2021/07/29 03:20:54;;;;;;;21.33;12.35;;;;;;;21.71;83.92;97240.28;5045132;28;20122;-81
2021/07/29 03:23:19;;;;;;;24.15;11.82;;;;;;;21.69;83.75;97247.78;5070077;28;20442;-83
2021/07/29 03:25:49;;;;;;;27.35;13.82;;;;;;;21.66;83.77;97248.94;5044745;28;20399;-83
2021/07/29 03:28:16;;;;;;;35.50;13.13;;;;;;;21.57;83.92;97233.63;5052955;28;20029;-79
2021/07/29 03:30:42;;;;;;;22.58;11.75;;;;;;;21.71;84.09;97252.03;5053031;28;20028;-79
2021/07/29 03:33:09;;;;;;;25.08;13.05;;;;;;;21.56;84.92;97240.94;5070063;28;20116;-79
2021/07/29 03:35:36;;;;;;;37.00;13.95;;;;;;;21.60;85.22;97257.78;5035964;28;20112;-79
2021/07/29 03:38:02;;;;;;;33.03;14.18;;;;;;;21.60;85.47;97263.25;5032890;28;20044;-79
2021/07/29 03:40:27;;;;;;;25.02;14.43;;;;;;;21.68;85.14;97263.25;5033321;28;20099;-78
2021/07/29 03:42:53;;;;;;;37.97;15.00;;;;;;;21.65;84.74;97247.25;5033031;28;20098;-78
2021/07/29 03:45:18;;;;;;;37.42;15.48;;;;;;;21.69;85.42;97243.16;5049849;28;20047;-78
2021/07/29 03:47:44;;;;;;;28.67;14.75;;;;;;;21.79;85.66;97254.72;5049452;28;20025;-78
2021/07/29 03:50:09;;;;;;;33.45;14.35;;;;;;;21.71;85.73;97240.28;5049567;28;20043;-78
2021/07/29 03:52:37;;;;;;;29.40;13.80;;;;;;;21.75;85.28;97245.19;5032967;28;20033;-78
2021/07/29 03:55:04;;;;;;;29.45;14.25;;;;;;;21.77;84.28;97239.59;5033119;28;20067;-78
2021/07/29 03:57:30;;;;;;;26.42;13.18;;;;;;;21.82;83.41;97237.19;5033148;28;20551;-78
2021/07/29 03:59:56;;;;;;;30.08;13.80;;;;;;;21.81;82.15;97230.88;5032751;28;20111;-77
2021/07/29 04:02:22;;;;;;;27.10;13.02;;;;;;;21.92;81.08;97237.91;5033066;28;20171;-78
2021/07/29 04:04:47;;;;;;;33.17;14.00;;;;;;;22.07;80.06;97247.06;5032636;28;20087;-79
2021/07/29 04:07:13;;;;;;;27.23;14.13;;;;;;;22.14;79.84;97253.50;5032777;28;20120;-78
2021/07/29 04:09:39;;;;;;;26.55;13.85;;;;;;;22.16;79.47;97237.84;5032998;28;20110;-78
2021/07/29 04:12:04;;;;;;;36.72;13.57;;;;;;;22.29;78.71;97240.00;5049378;28;20029;-77
2021/07/29 04:14:30;;;;;;;30.80;13.45;;;;;;;22.49;77.72;97253.03;5035534;28;20517;-78
2021/07/29 04:16:56;;;;;;;34.80;14.40;;;;;;;22.63;77.77;97259.66;5054483;28;20033;-78
2021/07/29 04:19:22;;;;;;;50.95;13.30;;;;;;;22.73;76.52;97263.06;5053219;28;20029;-78
2021/07/29 04:21:49;;;;;;;31.80;12.95;;;;;;;22.81;75.21;97257.56;5036346;28;20059;-78
2021/07/29 04:24:16;;;;;;;35.25;12.95;;;;;;;22.96;75.16;97263.94;5052872;28;20039;-77
2021/07/29 04:26:42;;;;;;;37.67;13.07;;;;;;;23.06;75.01;97266.44;5036131;28;20116;-78
2021/07/29 04:29:07;;;;;;;51.03;25.02;;;;;;;23.15;74.43;97277.16;5036309;28;20113;-78
2021/07/29 04:31:33;;;;;;;22.38;12.75;;;;;;;23.34;73.17;97264.91;5053061;28;20036;-78
2021/07/29 04:33:58;;;;;;;32.10;14.45;;;;;;;23.60;72.11;97253.63;5052685;28;20029;-77
2021/07/29 04:36:24;;;;;;;44.15;20.27;;;;;;;24.51;68.36;97258.91;5038480;28;20054;-78
2021/07/29 04:38:50;;;;;;;36.42;15.93;;;;;;;25.26;65.12;97253.97;5058967;28;20199;-78
2021/07/29 04:41:15;;;;;;;32.70;15.73;;;;;;;25.58;64.24;97261.75;5059513;28;20415;-78
2021/07/29 04:43:41;;;;;;;33.35;14.32;;;;;;;26.20;61.90;97270.13;5059189;28;20086;-78
2021/07/29 04:46:06;;;;;;;24.27;13.32;;;;;;;26.15;62.32;97277.19;5076185;28;20032;-78
2021/07/29 04:48:32;;;;;;;31.05;13.88;;;;;;;25.74;62.13;97268.84;5059408;28;20483;-79
2021/07/29 04:51:05;;;;;;;37.70;17.17;;;;;;;25.30;64.27;97256.16;5059147;28;20067;-78
2021/07/29 04:53:32;;;;;;;36.65;12.23;;;;;;;25.23;64.07;97276.28;5075875;28;20024;-78
2021/07/29 04:55:57;;;;;;;37.05;13.15;;;;;;;25.09;65.31;97263.47;5075700;28;20061;-78
2021/07/29 04:58:23;;;;;;;33.53;13.85;;;;;;;24.94;65.81;97249.00;5076028;28;20027;-78
2021/07/29 05:00:48;;;;;;;36.95;13.63;;;;;;;25.20;63.81;97263.81;5058817;28;20089;-79
2021/07/29 05:03:14;;;;;;;86.15;44.78;;;;;;;25.25;64.16;97275.06;5058855;28;20028;-76
2021/07/29 05:05:39;;;;;;;63.70;33.28;;;;;;;25.42;63.27;97259.22;5075950;28;20034;-76
2021/07/29 05:08:05;;;;;;;31.77;13.48;;;;;;;25.56;61.93;97268.47;5093256;28;20020;-76
2021/07/29 05:10:31;;;;;;;30.63;13.23;;;;;;;25.57;62.46;97278.38;5058735;28;20139;-76
2021/07/29 05:12:57;;;;;;;36.65;13.13;;;;;;;25.69;61.73;97271.31;5075432;28;20036;-76
2021/07/29 05:15:22;;;;;;;58.83;13.18;;;;;;;26.02;60.53;97266.16;5093618;28;20387;-76
2021/07/29 05:17:54;;;;;;;344.95;66.70;;;;;;;26.36;59.79;97291.75;5058467;28;20083;-76
2021/07/29 05:20:23;;;;;;;62.60;18.27;;;;;;;26.63;58.93;97281.81;5076488;28;20039;-76
2021/07/29 05:22:49;;;;;;;80.50;17.35;;;;;;;26.80;57.04;97293.31;5058370;28;20044;-75
2021/07/29 05:25:33;;;;;;;47.67;21.45;;;;;;;27.02;55.79;97275.69;5075190;28;20160;-76
2021/07/29 05:27:59;;;;;;;27.67;12.65;;;;;;;28.02;52.89;97293.09;5077616;28;20042;-76
2021/07/29 05:30:24;;;;;;;42.05;17.05;;;;;;;29.76;48.13;97289.53;5058522;28;20032;-76
2021/07/29 05:32:50;;;;;;;136.95;16.73;;;;;;;31.53;44.26;97312.75;5093028;28;20028;-77
2021/07/29 05:35:15;;;;;;;309.65;22.95;;;;;;;33.06;41.07;97299.88;5058519;28;20031;-78
2021/07/29 05:37:41;;;;;;;249.38;26.20;;;;;;;34.18;38.11;97308.59;5074984;28;20036;-78
2021/07/29 05:40:07;;;;;;;109.75;16.48;;;;;;;35.21;36.04;97305.31;5074941;28;20036;-78
2021/07/29 05:42:33;;;;;;;45.42;16.50;;;;;;;36.28;32.92;97302.72;5093140;28;20554;-78
2021/07/29 05:44:59;;;;;;;45.75;10.32;;;;;;;36.93;30.98;97250.31;5074753;28;20111;-78
2021/07/29 05:47:24;;;;;;;754.67;52.80;;;;;;;37.91;30.01;97304.44;5058120;28;20020;-79
2021/07/29 05:49:50;;;;;;;312.92;25.95;;;;;;;38.24;29.77;97300.31;5074394;28;20027;-78
2021/07/29 05:52:16;;;;;;;61.95;10.98;;;;;;;39.21;28.53;97312.38;5074662;28;20020;-78
2021/07/29 05:54:41;;;;;;;87.25;11.95;;;;;;;39.59;27.50;97294.94;5058247;28;20032;-78
2021/07/29 05:57:07;;;;;;;380.55;28.00;;;;;;;40.23;26.34;97288.47;5074491;28;20426;-78
2021/07/29 05:59:33;;;;;;;60.67;12.55;;;;;;;41.07;25.39;97302.94;5074648;28;20023;-77
2021/07/29 06:01:58;;;;;;;108.72;16.58;;;;;;;41.42;25.21;97307.38;5074326;28;20368;-77
2021/07/29 06:04:24;;;;;;;98.95;14.45;;;;;;;42.04;24.64;97300.72;5057558;28;20392;-77
2021/07/29 06:06:49;;;;;;;1999.90;372.60;;;;;;;42.46;24.16;97298.97;5057584;28;20020;-77
2021/07/29 06:09:15;;;;;;;821.38;43.28;;;;;;;42.47;23.16;97309.09;5057417;28;20016;-77
2021/07/29 06:11:40;;;;;;;498.30;27.83;;;;;;;43.06;23.36;97298.03;5074592;28;20102;-77
2021/07/29 06:14:06;;;;;;;278.33;20.92;;;;;;;42.73;23.95;97318.03;5057239;28;20066;-77
2021/07/29 06:16:31;;;;;;;114.28;14.48;;;;;;;41.58;24.34;97322.09;5092476;28;20050;-77
2021/07/29 06:19:06;;;;;;;57.33;15.15;;;;;;;41.94;24.51;97331.78;5057256;28;20123;-78
2021/07/29 06:21:32;;;;;;;26.00;9.93;;;;;;;41.38;25.20;97323.16;5058597;28;20483;-77
2021/07/29 06:23:58;;;;;;;140.70;15.23;;;;;;;40.64;26.42;97345.16;5092054;28;20081;-77
2021/07/29 06:26:24;;;;;;;50.80;10.23;;;;;;;39.82;27.13;97341.91;5074266;28;20083;-77
2021/07/29 06:28:49;;;;;;;1194.85;72.57;;;;;;;40.19;26.92;97344.28;5057469;28;20027;-77
2021/07/29 06:31:15;;;;;;;86.82;13.25;;;;;;;40.75;26.48;97341.97;5057056;28;20031;-77
2021/07/29 06:33:40;;;;;;;87.15;12.73;;;;;;;41.23;25.96;97344.91;5074042;28;20460;-77
2021/07/29 06:36:06;;;;;;;71.13;12.25;;;;;;;41.01;25.60;97320.97;5073131;28;20414;-77
2021/07/29 06:38:32;;;;;;;105.93;13.35;;;;;;;41.70;24.41;97336.56;5073754;28;20067;-77
2021/07/29 06:40:57;;;;;;;29.27;9.75;;;;;;;42.62;23.52;97334.22;5073928;28;20077;-77
2021/07/29 06:43:23;;;;;;;21.55;9.57;;;;;;;43.51;22.59;97332.13;5073794;28;20431;-77
2021/07/29 06:45:49;;;;;;;29.58;9.85;;;;;;;42.47;22.90;97312.75;5091989;28;20032;-77
2021/07/29 06:48:16;;;;;;;75.25;12.68;;;;;;;42.56;23.11;97322.19;5073357;28;20111;-77
2021/07/29 06:50:45;;;;;;;43.03;14.55;;;;;;;42.81;22.56;97332.22;5074143;28;20046;-77
2021/07/29 06:53:11;;;;;;;23.08;8.82;;;;;;;43.62;21.92;97305.44;5057068;28;20028;-77
2021/07/29 06:55:37;;;;;;;24.60;8.88;;;;;;;43.41;21.23;97301.34;5073883;28;20055;-78
2021/07/29 06:58:03;;;;;;;26.67;9.43;;;;;;;43.44;21.62;97295.09;5073536;28;20078;-78
2021/07/29 07:00:29;;;;;;;61.38;10.95;;;;;;;44.09;21.06;97293.69;5091618;28;20566;-78
2021/07/29 07:02:54;;;;;;;304.70;22.52;;;;;;;44.70;20.70;97293.13;5073528;28;20410;-77
2021/07/29 07:05:20;;;;;;;37.15;9.77;;;;;;;45.85;19.90;97283.81;5073392;28;20501;-77
2021/07/29 07:07:45;;;;;;;37.88;9.65;;;;;;;45.41;19.52;97285.63;5056572;28;20016;-77
2021/07/29 07:10:11;;;;;;;26.70;8.77;;;;;;;45.18;19.44;97303.78;5056633;28;20024;-78
2021/07/29 07:12:36;;;;;;;33.60;10.32;;;;;;;45.95;19.63;97295.69;5056644;28;20028;-78
2021/07/29 07:15:03;;;;;;;35.15;10.07;;;;;;;45.77;19.68;97282.66;5073298;28;20028;-78
2021/07/29 07:17:29;;;;;;;43.67;19.17;;;;;;;45.32;20.11;97295.25;5048164;28;20032;-78
2021/07/29 07:19:58;;;;;;;216.70;24.88;;;;;;;46.02;18.89;97293.22;5091554;28;20509;-78
2021/07/29 07:22:24;;;;;;;48.28;11.98;;;;;;;46.84;18.55;97295.16;5056968;28;20035;-78
2021/07/29 07:24:50;;;;;;;41.72;10.77;;;;;;;46.45;18.90;97286.81;5056697;28;20066;-77
2021/07/29 07:27:15;;;;;;;47.58;12.05;;;;;;;46.72;19.24;97297.78;5091296;28;20411;-78
2021/07/29 07:29:41;;;;;;;42.88;12.30;;;;;;;47.16;18.18;97286.13;5073199;28;20084;-77
2021/07/29 07:32:07;;;;;;;29.55;9.40;;;;;;;47.60;17.42;97284.81;5073107;28;20517;-78
2021/07/29 07:34:32;;;;;;;1999.90;197.15;;;;;;;47.74;17.64;97295.94;5056438;28;20035;-78
2021/07/29 07:36:58;;;;;;;45.15;10.45;;;;;;;47.76;18.00;97293.56;5073040;28;20055;-78
2021/07/29 07:39:25;;;;;;;294.58;19.15;;;;;;;47.45;18.22;97298.69;5055964;28;20036;-77
2021/07/29 07:41:51;;;;;;;75.70;13.38;;;;;;;46.75;18.45;97285.81;5073184;28;20059;-77
2021/07/29 07:44:16;;;;;;;40.35;9.07;;;;;;;47.97;17.84;97287.97;5072969;28;20032;-78
2021/07/29 07:46:42;;;;;;;29.10;8.98;;;;;;;48.22;17.44;97292.66;5072955;28;20028;-78
2021/07/29 07:49:07;;;;;;;38.95;9.43;;;;;;;48.97;16.93;97300.13;5058578;28;20190;-78
2021/07/29 07:51:33;;;;;;;109.28;13.63;;;;;;;49.06;17.19;97295.19;5076851;28;20071;-78
2021/07/29 07:53:58;;;;;;;134.52;13.93;;;;;;;48.58;17.41;97297.81;5060301;28;20035;-78
2021/07/29 07:56:24;;;;;;;67.63;10.85;;;;;;;48.69;17.21;97282.00;5094653;28;20147;-78
2021/07/29 07:58:50;;;;;;;54.40;9.50;;;;;;;48.62;16.79;97281.72;5077060;28;20458;-78
2021/07/29 08:01:15;;;;;;;397.83;29.45;;;;;;;47.74;17.16;97276.06;5076681;28;20024;-78
2021/07/29 08:03:41;;;;;;;29.27;9.02;;;;;;;46.37;17.59;97262.13;5059971;28;20628;-79
2021/07/29 08:06:07;;;;;;;30.25;8.38;;;;;;;45.95;18.23;97261.72;5060054;28;20024;-78
2021/07/29 08:08:32;;;;;;;235.35;48.88;;;;;;;45.81;18.51;97265.84;5059796;28;20046;-78
2021/07/29 08:10:58;;;;;;;71.70;12.43;;;;;;;46.05;18.27;97264.28;5076639;28;20026;-78
2021/07/29 08:13:23;;;;;;;47.75;10.30;;;;;;;46.81;17.76;97274.00;5076215;28;20510;-78
2021/07/29 08:15:50;;;;;;;53.30;10.55;;;;;;;48.58;16.91;97286.44;5094681;28;20030;-78
2021/07/29 08:18:15;;;;;;;81.80;13.23;;;;;;;48.60;16.62;97273.53;5059671;28;20028;-79
2021/07/29 08:20:42;;;;;;;65.13;11.20;;;;;;;47.49;16.89;97269.31;5076496;28;20394;-78
2021/07/29 08:23:08;;;;;;;80.45;11.00;;;;;;;47.62;17.20;97270.31;5076307;28;20114;-78
2021/07/29 08:25:35;;;;;;;796.28;56.40;;;;;;;48.87;16.08;97278.63;5076183;28;20119;-79
2021/07/29 08:28:01;;;;;;;1999.90;232.88;;;;;;;48.88;16.80;97279.47;5076343;28;20073;-78
2021/07/29 08:30:26;;;;;;;387.23;37.78;;;;;;;48.90;16.21;97280.78;5076347;28;20020;-78
2021/07/29 08:32:52;;;;;;;166.05;13.73;;;;;;;49.73;15.49;97259.78;5059423;28;20019;-77
2021/07/29 08:35:17;;;;;;;76.30;10.15;;;;;;;50.59;15.08;97284.16;5076282;28;20028;-79
2021/07/29 08:37:46;;;;;;;60.00;12.90;;;;;;;50.41;15.51;97267.34;5059286;28;20040;-77
2021/07/29 08:40:18;;;;;;;42.83;11.07;;;;;;;50.72;15.14;97271.56;5059735;28;20032;-78
2021/07/29 08:42:48;;;;;;;40.42;9.77;;;;;;;49.58;15.34;97269.84;5076091;28;20097;-78
2021/07/29 08:45:14;;;;;;;42.58;10.00;;;;;;;49.26;15.79;97257.31;5059340;28;20028;-77
2021/07/29 08:47:42;;;;;;;543.63;36.78;;;;;;;49.86;15.79;97259.44;5059433;28;20479;-77
2021/07/29 08:50:08;;;;;;;38.35;8.60;;;;;;;48.97;15.68;97254.66;5076069;28;20413;-77
2021/07/29 08:52:34;;;;;;;38.70;8.65;;;;;;;48.13;16.23;97240.78;5093613;28;20036;-77
2021/07/29 08:55:00;;;;;;;28.73;8.43;;;;;;;48.94;15.58;97248.84;5059051;28;20020;-77
2021/07/29 08:57:31;;;;;;;33.78;8.20;;;;;;;50.49;13.67;97251.28;5075509;28;20080;-77
2021/07/29 09:00:00;;;;;;;120.40;14.75;;;;;;;51.44;13.38;97248.38;5093446;28;20024;-78
2021/07/29 09:02:26;;;;;;;82.43;13.68;;;;;;;51.07;13.24;97251.81;5058733;28;20031;-78
2021/07/29 09:05:21;;;;;;;42.70;9.00;;;;;;;51.49;12.25;97247.28;5058928;28;20454;-78
2021/07/29 09:08:08;;;;;;;25.73;7.93;;;;;;;51.28;12.14;97241.81;5058503;28;20556;-78
2021/07/29 09:10:39;;;;;;;34.83;7.75;;;;;;;50.08;11.69;97228.84;5075639;28;20024;-78
2021/07/29 09:13:17;;;;;;;30.83;7.57;;;;;;;50.52;11.55;97235.53;5058770;28;20066;-78
2021/07/29 09:15:47;;;;;;;27.23;7.75;;;;;;;51.12;11.83;97228.72;5075957;28;20476;-78
2021/07/29 09:18:35;;;;;;;31.13;7.43;;;;;;;51.65;11.61;97238.75;5058600;28;20031;-78
2021/07/29 09:21:12;;;;;;;26.88;7.75;;;;;;;50.09;12.44;97228.47;5058570;28;20274;-77
2021/07/29 09:23:38;;;;;;;29.08;7.55;;;;;;;49.93;12.71;97224.69;5058292;28;20037;-77
2021/07/29 09:26:03;;;;;;;29.48;7.53;;;;;;;50.23;12.75;97225.25;5075509;28;20032;-77
2021/07/29 09:28:34;;;;;;;30.98;6.97;;;;;;;48.81;12.94;97211.00;5075063;28;20449;-78
2021/07/29 09:31:17;;;;;;;32.63;7.85;;;;;;;50.18;12.77;97225.50;5075218;28;20020;-77
2021/07/29 09:33:58;;;;;;;32.83;7.43;;;;;;;50.61;13.65;97230.50;5058452;28;20036;-78
2021/07/29 09:36:24;;;;;;;34.40;7.60;;;;;;;51.60;13.35;97242.66;5058158;28;20027;-78
2021/07/29 09:38:50;;;;;;;46.28;8.98;;;;;;;51.71;13.14;97242.97;5075242;28;20462;-78
2021/07/29 09:41:28;;;;;;;45.65;9.35;;;;;;;51.63;13.79;97241.09;5075001;28;20105;-78
2021/07/29 09:43:54;;;;;;;35.35;7.55;;;;;;;50.34;14.31;97241.50;5075436;28;20020;-77
2021/07/29 09:46:21;;;;;;;34.38;8.13;;;;;;;50.24;15.06;97236.25;5075011;28;20035;-78
2021/07/29 09:48:47;;;;;;;23.55;6.43;;;;;;;50.94;14.24;97231.91;5058145;28;20078;-77
2021/07/29 09:51:15;;;;;;;38.60;7.20;;;;;;;50.51;13.74;97234.69;5058155;28;20027;-78
2021/07/29 09:53:41;;;;;;;30.92;7.07;;;;;;;51.45;13.62;97229.22;5074465;28;20024;-78
2021/07/29 09:56:11;;;;;;;30.25;8.00;;;;;;;50.80;13.15;97222.09;5074783;28;20056;-77
2021/07/29 09:58:37;;;;;;;;;;;;;;;50.94;13.40;97231.06;5074713;28;20016;-78
2021/07/29 10:01:03;;;;;;;32.72;8.70;;;;;;;51.12;13.26;97235.25;5074691;28;19916;-77
2021/07/29 10:03:30;;;;;;;20.08;6.70;;;;;;;51.18;13.00;97224.41;5057727;28;20024;-78
2021/07/29 10:06:00;;;;;;;28.48;7.68;;;;;;;50.51;13.14;97225.31;5057871;28;20038;-78
2021/07/29 10:08:32;;;;;;;26.35;7.47;;;;;;;51.31;12.70;97228.84;5092570;28;20028;-78
2021/07/29 10:11:03;;;;;;;31.88;7.80;;;;;;;51.22;12.43;97220.47;5091763;28;20058;-78
2021/07/29 10:13:36;;;;;;;32.72;8.25;;;;;;;51.73;12.45;97224.28;5074367;28;20496;-78
2021/07/29 10:16:02;;;;;;;42.95;8.52;;;;;;;51.96;12.61;97227.28;5074471;28;20073;-78
2021/07/29 10:18:50;;;;;;;44.80;8.00;;;;;;;50.27;13.64;97220.50;5074353;28;20046;-78
2021/07/29 10:21:36;;;;;;;37.55;8.18;;;;;;;50.82;13.23;97225.44;5073934;28;20031;-78
2021/07/29 10:24:07;;;;;;;38.47;8.73;;;;;;;51.48;12.07;97217.91;5074358;28;20030;-78
2021/07/29 10:26:35;;;;;;;45.20;8.75;;;;;;;49.99;13.17;97211.91;5057233;28;20035;-78
2021/07/29 10:29:32;;;;;;;28.83;7.22;;;;;;;49.32;13.89;97216.13;5092040;28;20028;-77
2021/07/29 10:32:02;;;;;;;29.50;6.97;;;;;;;47.26;14.91;97208.34;5003524;28;20067;-77
2021/07/29 10:34:35;;;;;;;40.70;8.90;;;;;;;49.24;13.72;97208.50;5074375;28;20023;-77
2021/07/29 10:37:04;;;;;;;92.70;12.98;;;;;;;50.05;13.35;97207.63;5065840;28;20068;-77
2021/07/29 10:39:30;;;;;;;55.22;7.57;;;;;;;50.86;13.11;97217.78;5057026;28;20169;-77
2021/07/29 10:42:00;;;;;;;31.27;8.25;;;;;;;51.31;12.87;97218.25;5073766;28;20110;-77
2021/07/29 10:44:31;;;;;;;82.45;9.90;;;;;;;49.27;13.26;97190.72;5073778;28;20043;-77
2021/07/29 10:46:57;;;;;;;94.97;11.52;;;;;;;50.48;13.25;97206.91;5073758;28;20395;-77
2021/07/29 10:49:22;;;;;;;84.75;9.93;;;;;;;51.25;12.67;97202.63;5073577;28;20043;-78
2021/07/29 10:52:09;;;;;;;31.75;7.38;;;;;;;51.63;12.02;97199.09;5056760;28;20403;-76
2021/07/29 10:54:39;;;;;;;79.00;9.80;;;;;;;51.35;11.46;97198.38;5074158;28;20050;-76
2021/07/29 10:57:05;;;;;;;44.80;8.20;;;;;;;52.44;11.16;97198.22;5066057;28;20028;-77
2021/07/29 10:59:32;;;;;;;41.63;7.93;;;;;;;52.49;11.10;97197.09;5056904;28;20028;-77
2021/07/29 11:02:00;;;;;;;127.88;11.45;;;;;;;52.24;11.71;97193.66;5073404;28;20034;-78
2021/07/29 11:04:28;;;;;;;37.33;8.23;;;;;;;52.55;11.68;97198.44;5056986;28;20032;-77
2021/07/29 11:07:02;;;;;;;40.90;7.68;;;;;;;51.29;12.04;97183.53;5091295;28;20089;-78
2021/07/29 11:09:32;;;;;;;40.05;8.68;;;;;;;51.40;12.53;97192.44;5074165;28;20031;-77
2021/07/29 11:11:59;;;;;;;370.75;28.20;;;;;;;51.97;12.53;97200.34;5073291;28;20026;-77
2021/07/29 11:14:33;;;;;;;87.47;10.35;;;;;;;51.86;12.32;97200.13;5056478;28;20036;-78
2021/07/29 11:17:01;;;;;;;764.15;51.05;;;;;;;51.38;12.15;97192.78;5056491;28;20028;-76
2021/07/29 11:19:27;;;;;;;385.17;20.80;;;;;;;50.67;12.72;97186.31;5056579;28;20034;-77
2021/07/29 11:22:02;;;;;;;1068.65;148.93;;;;;;;51.72;12.72;97190.41;5072929;28;20392;-77